sensor_id;sensor_type;location;lat;lon;timestamp;P1;durP1;ratioP1;P2;durP2;ratioP2
6947;SDS011;3513;47.664;9.162;2022-08-25T00:01:10;7.43;;;4.60;;
6947;SDS011;3513;47.664;9.162;2022-08-25T00:03:41;7.90;;;4.30;;
6947;SDS011;3513;47.664;9.162;2022-08-25T00:06:08;6.80;;;5.07;;
6947;SDS011;3513;47.664;9.162;2022-08-25T00:08:35;5.23;;;4.50;;
6947;SDS011;3513;47.664;9.162;2022-08-25T00:11:23;7.07;;;4.90;;
6947;SDS011;3513;47.664;9.162;2022-08-25T00:13:50;6.17;;;5.57;;
6947;SDS011;3513;47.664;9.162;2022-08-25T00:16:20;5.60;;;5.10;;
6947;SDS011;3513;47.664;9.162;2022-08-25T00:18:48;14.67;;;5.53;;
6947;SDS011;3513;47.664;9.162;2022-08-25T00:21:15;10.27;;;4.00;;
6947;SDS011;3513;47.664;9.162;2022-08-25T00:23:42;8.03;;;4.83;;
6947;SDS011;3513;47.664;9.162;2022-08-25T00:26:09;6.03;;;4.50;;
6947;SDS011;3513;47.664;9.162;2022-08-25T00:28:36;11.30;;;5.27;;
6947;SDS011;3513;47.664;9.162;2022-08-25T00:31:03;6.53;;;5.00;;
6947;SDS011;3513;47.664;9.162;2022-08-25T00:33:29;5.33;;;4.83;;
6947;SDS011;3513;47.664;9.162;2022-08-25T00:35:55;9.13;;;4.97;;
6947;SDS011;3513;47.664;9.162;2022-08-25T00:38:21;5.70;;;4.80;;
6947;SDS011;3513;47.664;9.162;2022-08-25T00:40:48;7.90;;;5.03;;
6947;SDS011;3513;47.664;9.162;2022-08-25T00:43:33;14.93;;;5.43;;
6947;SDS011;3513;47.664;9.162;2022-08-25T00:46:13;20.37;;;5.63;;
6947;SDS011;3513;47.664;9.162;2022-08-25T00:48:42;6.13;;;5.00;;
6947;SDS011;3513;47.664;9.162;2022-08-25T00:51:12;17.07;;;5.07;;
6947;SDS011;3513;47.664;9.162;2022-08-25T00:53:43;5.00;;;4.50;;
6947;SDS011;3513;47.664;9.162;2022-08-25T00:56:09;6.60;;;4.93;;
6947;SDS011;3513;47.664;9.162;2022-08-25T00:58:36;15.93;;;5.30;;
6947;SDS011;3513;47.664;9.162;2022-08-25T01:01:03;7.30;;;5.47;;
6947;SDS011;3513;47.664;9.162;2022-08-25T01:03:29;6.33;;;5.57;;
6947;SDS011;3513;47.664;9.162;2022-08-25T01:05:58;5.57;;;5.03;;
6947;SDS011;3513;47.664;9.162;2022-08-25T01:08:25;8.50;;;5.30;;
6947;SDS011;3513;47.664;9.162;2022-08-25T01:10:53;6.37;;;4.30;;
6947;SDS011;3513;47.664;9.162;2022-08-25T01:13:22;11.20;;;5.10;;
6947;SDS011;3513;47.664;9.162;2022-08-25T01:16:09;7.67;;;5.20;;
6947;SDS011;3513;47.664;9.162;2022-08-25T01:21:36;6.73;;;6.10;;
6947;SDS011;3513;47.664;9.162;2022-08-25T01:24:04;6.73;;;5.57;;
6947;SDS011;3513;47.664;9.162;2022-08-25T01:26:31;7.13;;;4.57;;
6947;SDS011;3513;47.664;9.162;2022-08-25T01:28:59;8.33;;;5.80;;
6947;SDS011;3513;47.664;9.162;2022-08-25T01:31:45;5.73;;;5.13;;
6947;SDS011;3513;47.664;9.162;2022-08-25T01:34:12;7.80;;;6.37;;
6947;SDS011;3513;47.664;9.162;2022-08-25T01:36:39;5.37;;;4.97;;
6947;SDS011;3513;47.664;9.162;2022-08-25T01:39:06;8.40;;;4.97;;
6947;SDS011;3513;47.664;9.162;2022-08-25T01:43:58;7.80;;;5.30;;
6947;SDS011;3513;47.664;9.162;2022-08-25T01:46:25;17.27;;;6.07;;
6947;SDS011;3513;47.664;9.162;2022-08-25T01:48:51;5.90;;;4.60;;
6947;SDS011;3513;47.664;9.162;2022-08-25T01:51:18;6.07;;;5.17;;
6947;SDS011;3513;47.664;9.162;2022-08-25T01:53:48;6.93;;;4.77;;
6947;SDS011;3513;47.664;9.162;2022-08-25T01:56:15;10.60;;;5.13;;
6947;SDS011;3513;47.664;9.162;2022-08-25T01:58:45;8.83;;;5.90;;
6947;SDS011;3513;47.664;9.162;2022-08-25T02:01:17;11.10;;;5.60;;
6947;SDS011;3513;47.664;9.162;2022-08-25T02:03:46;8.40;;;4.87;;
6947;SDS011;3513;47.664;9.162;2022-08-25T02:06:14;13.23;;;5.70;;
6947;SDS011;3513;47.664;9.162;2022-08-25T02:08:42;5.53;;;5.03;;
6947;SDS011;3513;47.664;9.162;2022-08-25T02:11:11;5.27;;;4.77;;
6947;SDS011;3513;47.664;9.162;2022-08-25T02:13:39;6.37;;;5.40;;
6947;SDS011;3513;47.664;9.162;2022-08-25T02:16:06;8.20;;;6.00;;
6947;SDS011;3513;47.664;9.162;2022-08-25T02:18:34;7.37;;;5.67;;
6947;SDS011;3513;47.664;9.162;2022-08-25T02:21:00;6.60;;;5.43;;
6947;SDS011;3513;47.664;9.162;2022-08-25T02:23:26;7.47;;;5.90;;
6947;SDS011;3513;47.664;9.162;2022-08-25T02:25:52;5.13;;;4.60;;
6947;SDS011;3513;47.664;9.162;2022-08-25T02:28:18;6.87;;;5.53;;
6947;SDS011;3513;47.664;9.162;2022-08-25T02:30:44;5.70;;;5.17;;
6947;SDS011;3513;47.664;9.162;2022-08-25T02:33:11;5.20;;;4.70;;
6947;SDS011;3513;47.664;9.162;2022-08-25T02:35:37;17.57;;;5.60;;
6947;SDS011;3513;47.664;9.162;2022-08-25T02:38:03;8.80;;;5.60;;
6947;SDS011;3513;47.664;9.162;2022-08-25T02:40:30;20.33;;;6.90;;
6947;SDS011;3513;47.664;9.162;2022-08-25T02:42:56;6.00;;;5.13;;
6947;SDS011;3513;47.664;9.162;2022-08-25T02:45:21;10.40;;;4.93;;
6947;SDS011;3513;47.664;9.162;2022-08-25T02:47:47;6.83;;;5.33;;
6947;SDS011;3513;47.664;9.162;2022-08-25T02:50:13;14.00;;;5.37;;
6947;SDS011;3513;47.664;9.162;2022-08-25T02:52:39;9.27;;;6.47;;
6947;SDS011;3513;47.664;9.162;2022-08-25T02:55:06;5.63;;;5.13;;
6947;SDS011;3513;47.664;9.162;2022-08-25T02:57:33;14.20;;;6.10;;
6947;SDS011;3513;47.664;9.162;2022-08-25T02:59:59;5.23;;;4.73;;
6947;SDS011;3513;47.664;9.162;2022-08-25T03:02:25;13.40;;;6.00;;
6947;SDS011;3513;47.664;9.162;2022-08-25T03:04:52;13.53;;;5.17;;
6947;SDS011;3513;47.664;9.162;2022-08-25T03:07:18;6.30;;;5.40;;
6947;SDS011;3513;47.664;9.162;2022-08-25T03:09:46;6.37;;;5.60;;
6947;SDS011;3513;47.664;9.162;2022-08-25T03:12:12;12.33;;;6.10;;
6947;SDS011;3513;47.664;9.162;2022-08-25T03:14:38;8.33;;;6.50;;
6947;SDS011;3513;47.664;9.162;2022-08-25T03:17:07;9.13;;;5.63;;
6947;SDS011;3513;47.664;9.162;2022-08-25T03:19:33;6.63;;;5.27;;
6947;SDS011;3513;47.664;9.162;2022-08-25T03:21:59;23.30;;;7.73;;
6947;SDS011;3513;47.664;9.162;2022-08-25T03:24:25;6.03;;;4.90;;
6947;SDS011;3513;47.664;9.162;2022-08-25T03:26:52;11.00;;;6.00;;
6947;SDS011;3513;47.664;9.162;2022-08-25T03:29:18;8.30;;;6.50;;
6947;SDS011;3513;47.664;9.162;2022-08-25T03:31:45;10.40;;;5.90;;
6947;SDS011;3513;47.664;9.162;2022-08-25T03:34:11;11.70;;;6.80;;
6947;SDS011;3513;47.664;9.162;2022-08-25T03:36:40;5.57;;;5.07;;
6947;SDS011;3513;47.664;9.162;2022-08-25T03:39:07;6.37;;;5.47;;
6947;SDS011;3513;47.664;9.162;2022-08-25T03:41:33;8.90;;;6.13;;
6947;SDS011;3513;47.664;9.162;2022-08-25T03:43:59;6.00;;;5.10;;
6947;SDS011;3513;47.664;9.162;2022-08-25T03:46:28;8.03;;;5.93;;
6947;SDS011;3513;47.664;9.162;2022-08-25T03:48:56;6.73;;;5.93;;
6947;SDS011;3513;47.664;9.162;2022-08-25T03:51:28;8.20;;;5.63;;
6947;SDS011;3513;47.664;9.162;2022-08-25T03:54:00;6.43;;;5.57;;
6947;SDS011;3513;47.664;9.162;2022-08-25T03:56:26;7.10;;;5.80;;
6947;SDS011;3513;47.664;9.162;2022-08-25T03:58:52;8.50;;;7.30;;
6947;SDS011;3513;47.664;9.162;2022-08-25T04:01:19;10.57;;;6.40;;
6947;SDS011;3513;47.664;9.162;2022-08-25T04:03:45;9.53;;;7.07;;
6947;SDS011;3513;47.664;9.162;2022-08-25T04:06:11;8.93;;;6.60;;
6947;SDS011;3513;47.664;9.162;2022-08-25T04:08:37;7.07;;;6.37;;
6947;SDS011;3513;47.664;9.162;2022-08-25T04:11:10;7.73;;;6.97;;
6947;SDS011;3513;47.664;9.162;2022-08-25T04:13:38;9.30;;;6.67;;
6947;SDS011;3513;47.664;9.162;2022-08-25T04:16:10;9.97;;;6.53;;
6947;SDS011;3513;47.664;9.162;2022-08-25T04:18:40;12.87;;;7.07;;
6947;SDS011;3513;47.664;9.162;2022-08-25T04:21:08;12.97;;;6.70;;
6947;SDS011;3513;47.664;9.162;2022-08-25T04:23:35;9.90;;;6.80;;
6947;SDS011;3513;47.664;9.162;2022-08-25T04:26:13;7.90;;;6.73;;
6947;SDS011;3513;47.664;9.162;2022-08-25T04:28:49;12.10;;;6.47;;
6947;SDS011;3513;47.664;9.162;2022-08-25T04:31:16;10.07;;;5.90;;
6947;SDS011;3513;47.664;9.162;2022-08-25T04:33:43;7.17;;;6.30;;
6947;SDS011;3513;47.664;9.162;2022-08-25T04:36:10;7.10;;;6.40;;
6947;SDS011;3513;47.664;9.162;2022-08-25T04:38:36;5.70;;;5.13;;
6947;SDS011;3513;47.664;9.162;2022-08-25T04:41:03;7.97;;;7.03;;
6947;SDS011;3513;47.664;9.162;2022-08-25T04:43:30;7.07;;;6.33;;
6947;SDS011;3513;47.664;9.162;2022-08-25T04:45:57;6.40;;;5.80;;
6947;SDS011;3513;47.664;9.162;2022-08-25T04:48:23;12.53;;;6.43;;
6947;SDS011;3513;47.664;9.162;2022-08-25T04:50:50;8.13;;;6.47;;
6947;SDS011;3513;47.664;9.162;2022-08-25T04:53:16;14.00;;;6.17;;
6947;SDS011;3513;47.664;9.162;2022-08-25T04:55:43;6.40;;;5.80;;
6947;SDS011;3513;47.664;9.162;2022-08-25T04:58:10;10.53;;;6.50;;
6947;SDS011;3513;47.664;9.162;2022-08-25T05:00:37;7.30;;;6.60;;
6947;SDS011;3513;47.664;9.162;2022-08-25T05:03:04;7.90;;;6.40;;
6947;SDS011;3513;47.664;9.162;2022-08-25T05:05:30;10.93;;;7.40;;
6947;SDS011;3513;47.664;9.162;2022-08-25T05:07:56;13.83;;;6.37;;
6947;SDS011;3513;47.664;9.162;2022-08-25T05:10:22;9.70;;;6.80;;
6947;SDS011;3513;47.664;9.162;2022-08-25T05:12:48;17.33;;;6.93;;
6947;SDS011;3513;47.664;9.162;2022-08-25T05:15:14;10.37;;;6.47;;
6947;SDS011;3513;47.664;9.162;2022-08-25T05:17:58;8.80;;;5.93;;
6947;SDS011;3513;47.664;9.162;2022-08-25T05:20:24;8.23;;;6.60;;
6947;SDS011;3513;47.664;9.162;2022-08-25T05:22:50;8.90;;;5.77;;
6947;SDS011;3513;47.664;9.162;2022-08-25T05:25:15;7.97;;;7.00;;
6947;SDS011;3513;47.664;9.162;2022-08-25T05:27:41;8.67;;;7.47;;
6947;SDS011;3513;47.664;9.162;2022-08-25T05:30:10;13.00;;;7.23;;
6947;SDS011;3513;47.664;9.162;2022-08-25T05:32:36;7.93;;;6.60;;
6947;SDS011;3513;47.664;9.162;2022-08-25T05:35:03;10.67;;;7.20;;
6947;SDS011;3513;47.664;9.162;2022-08-25T05:37:29;14.90;;;7.43;;
6947;SDS011;3513;47.664;9.162;2022-08-25T05:39:55;14.00;;;7.67;;
6947;SDS011;3513;47.664;9.162;2022-08-25T05:42:20;12.77;;;7.20;;
6947;SDS011;3513;47.664;9.162;2022-08-25T05:44:46;8.30;;;7.10;;
6947;SDS011;3513;47.664;9.162;2022-08-25T05:47:12;10.70;;;8.20;;
6947;SDS011;3513;47.664;9.162;2022-08-25T05:49:38;10.03;;;7.00;;
6947;SDS011;3513;47.664;9.162;2022-08-25T05:52:03;9.70;;;8.47;;
6947;SDS011;3513;47.664;9.162;2022-08-25T05:54:29;9.43;;;7.70;;
6947;SDS011;3513;47.664;9.162;2022-08-25T05:56:55;8.60;;;7.20;;
6947;SDS011;3513;47.664;9.162;2022-08-25T05:59:22;10.37;;;7.53;;
6947;SDS011;3513;47.664;9.162;2022-08-25T06:01:47;33.97;;;7.63;;
6947;SDS011;3513;47.664;9.162;2022-08-25T06:04:32;20.27;;;7.77;;
6947;SDS011;3513;47.664;9.162;2022-08-25T06:06:58;21.83;;;7.87;;
6947;SDS011;3513;47.664;9.162;2022-08-25T06:09:24;9.33;;;7.07;;
6947;SDS011;3513;47.664;9.162;2022-08-25T06:11:50;10.30;;;6.50;;
6947;SDS011;3513;47.664;9.162;2022-08-25T06:14:16;9.40;;;7.63;;
6947;SDS011;3513;47.664;9.162;2022-08-25T06:16:42;11.30;;;7.80;;
6947;SDS011;3513;47.664;9.162;2022-08-25T06:19:08;8.83;;;7.70;;
6947;SDS011;3513;47.664;9.162;2022-08-25T06:21:34;15.90;;;8.83;;
6947;SDS011;3513;47.664;9.162;2022-08-25T06:24:03;9.20;;;7.63;;
6947;SDS011;3513;47.664;9.162;2022-08-25T06:26:29;8.30;;;7.33;;
6947;SDS011;3513;47.664;9.162;2022-08-25T06:28:55;10.13;;;8.83;;
6947;SDS011;3513;47.664;9.162;2022-08-25T06:31:22;12.50;;;8.33;;
6947;SDS011;3513;47.664;9.162;2022-08-25T06:33:48;9.77;;;8.17;;
6947;SDS011;3513;47.664;9.162;2022-08-25T06:36:14;16.93;;;8.80;;
6947;SDS011;3513;47.664;9.162;2022-08-25T06:38:40;12.50;;;8.57;;
6947;SDS011;3513;47.664;9.162;2022-08-25T06:41:06;16.03;;;8.13;;
6947;SDS011;3513;47.664;9.162;2022-08-25T06:43:34;11.63;;;7.63;;
6947;SDS011;3513;47.664;9.162;2022-08-25T06:46:07;17.80;;;9.03;;
6947;SDS011;3513;47.664;9.162;2022-08-25T06:48:34;11.47;;;7.67;;
6947;SDS011;3513;47.664;9.162;2022-08-25T06:51:03;13.90;;;8.83;;
6947;SDS011;3513;47.664;9.162;2022-08-25T06:53:30;9.47;;;8.20;;
6947;SDS011;3513;47.664;9.162;2022-08-25T06:55:57;11.70;;;8.10;;
6947;SDS011;3513;47.664;9.162;2022-08-25T06:58:23;8.77;;;7.83;;
6947;SDS011;3513;47.664;9.162;2022-08-25T07:00:49;8.30;;;7.10;;
6947;SDS011;3513;47.664;9.162;2022-08-25T07:03:14;15.33;;;7.97;;
6947;SDS011;3513;47.664;9.162;2022-08-25T07:05:40;11.40;;;7.23;;
6947;SDS011;3513;47.664;9.162;2022-08-25T07:08:06;7.90;;;7.10;;
6947;SDS011;3513;47.664;9.162;2022-08-25T07:10:31;16.33;;;7.60;;
6947;SDS011;3513;47.664;9.162;2022-08-25T07:12:57;7.10;;;6.37;;
6947;SDS011;3513;47.664;9.162;2022-08-25T07:15:23;7.37;;;6.20;;
6947;SDS011;3513;47.664;9.162;2022-08-25T07:17:48;10.07;;;6.80;;
6947;SDS011;3513;47.664;9.162;2022-08-25T07:20:15;9.93;;;6.70;;
6947;SDS011;3513;47.664;9.162;2022-08-25T07:22:41;14.37;;;6.50;;
6947;SDS011;3513;47.664;9.162;2022-08-25T07:25:07;12.63;;;5.70;;
6947;SDS011;3513;47.664;9.162;2022-08-25T07:27:34;7.80;;;7.00;;
6947;SDS011;3513;47.664;9.162;2022-08-25T07:30:02;14.40;;;7.10;;
6947;SDS011;3513;47.664;9.162;2022-08-25T07:32:29;6.93;;;6.20;;
6947;SDS011;3513;47.664;9.162;2022-08-25T07:34:55;15.57;;;6.27;;
6947;SDS011;3513;47.664;9.162;2022-08-25T07:37:39;7.37;;;6.60;;
6947;SDS011;3513;47.664;9.162;2022-08-25T07:40:17;7.10;;;6.30;;
6947;SDS011;3513;47.664;9.162;2022-08-25T07:42:45;9.40;;;6.70;;
6947;SDS011;3513;47.664;9.162;2022-08-25T07:45:12;7.23;;;6.53;;
6947;SDS011;3513;47.664;9.162;2022-08-25T07:47:38;10.63;;;6.70;;
6947;SDS011;3513;47.664;9.162;2022-08-25T07:50:05;13.30;;;6.43;;
6947;SDS011;3513;47.664;9.162;2022-08-25T07:52:32;10.23;;;7.33;;
6947;SDS011;3513;47.664;9.162;2022-08-25T07:54:58;10.20;;;5.43;;
6947;SDS011;3513;47.664;9.162;2022-08-25T07:57:24;7.27;;;6.47;;
6947;SDS011;3513;47.664;9.162;2022-08-25T07:59:51;9.13;;;5.80;;
6947;SDS011;3513;47.664;9.162;2022-08-25T08:02:17;8.90;;;6.30;;
6947;SDS011;3513;47.664;9.162;2022-08-25T08:04:42;7.13;;;6.43;;
6947;SDS011;3513;47.664;9.162;2022-08-25T08:07:09;7.07;;;6.37;;
6947;SDS011;3513;47.664;9.162;2022-08-25T08:09:35;12.43;;;6.17;;
6947;SDS011;3513;47.664;9.162;2022-08-25T08:12:01;11.13;;;7.00;;
6947;SDS011;3513;47.664;9.162;2022-08-25T08:14:28;15.27;;;7.50;;
6947;SDS011;3513;47.664;9.162;2022-08-25T08:16:53;10.07;;;6.13;;
6947;SDS011;3513;47.664;9.162;2022-08-25T08:19:19;7.13;;;5.90;;
6947;SDS011;3513;47.664;9.162;2022-08-25T08:21:46;7.73;;;6.13;;
6947;SDS011;3513;47.664;9.162;2022-08-25T08:24:12;14.43;;;7.03;;
6947;SDS011;3513;47.664;9.162;2022-08-25T08:26:38;11.33;;;6.60;;
6947;SDS011;3513;47.664;9.162;2022-08-25T08:29:03;8.27;;;6.23;;
6947;SDS011;3513;47.664;9.162;2022-08-25T08:31:29;10.43;;;6.53;;
6947;SDS011;3513;47.664;9.162;2022-08-25T08:33:55;9.93;;;7.57;;
6947;SDS011;3513;47.664;9.162;2022-08-25T08:36:22;8.50;;;6.03;;
6947;SDS011;3513;47.664;9.162;2022-08-25T08:38:48;8.03;;;5.50;;
6947;SDS011;3513;47.664;9.162;2022-08-25T08:44:26;7.23;;;6.50;;
6947;SDS011;3513;47.664;9.162;2022-08-25T08:50:02;7.00;;;5.83;;
6947;SDS011;3513;47.664;9.162;2022-08-25T08:52:53;5.90;;;5.30;;
6947;SDS011;3513;47.664;9.162;2022-08-25T08:55:43;6.37;;;5.60;;
6947;SDS011;3513;47.664;9.162;2022-08-25T08:58:23;6.77;;;5.97;;
6947;SDS011;3513;47.664;9.162;2022-08-25T09:00:55;9.63;;;5.70;;
6947;SDS011;3513;47.664;9.162;2022-08-25T09:06:32;17.30;;;5.17;;
6947;SDS011;3513;47.664;9.162;2022-08-25T09:09:05;8.37;;;6.37;;
6947;SDS011;3513;47.664;9.162;2022-08-25T09:20:03;6.30;;;5.23;;
6947;SDS011;3513;47.664;9.162;2022-08-25T09:28:05;6.10;;;5.30;;
6947;SDS011;3513;47.664;9.162;2022-08-25T09:33:26;6.33;;;5.67;;
6947;SDS011;3513;47.664;9.162;2022-08-25T09:35:54;14.33;;;5.70;;
6947;SDS011;3513;47.664;9.162;2022-08-25T09:38:21;6.80;;;6.10;;
6947;SDS011;3513;47.664;9.162;2022-08-25T09:40:48;8.77;;;5.50;;
6947;SDS011;3513;47.664;9.162;2022-08-25T09:46:32;6.70;;;5.77;;
6947;SDS011;3513;47.664;9.162;2022-08-25T09:48:41;5.40;;;4.90;;
6947;SDS011;3513;47.664;9.162;2022-08-25T09:54:15;7.20;;;5.97;;
6947;SDS011;3513;47.664;9.162;2022-08-25T09:56:47;8.90;;;6.00;;
6947;SDS011;3513;47.664;9.162;2022-08-25T09:59:19;5.93;;;4.80;;
6947;SDS011;3513;47.664;9.162;2022-08-25T10:01:49;8.20;;;6.00;;
6947;SDS011;3513;47.664;9.162;2022-08-25T10:04:24;6.40;;;5.37;;
6947;SDS011;3513;47.664;9.162;2022-08-25T10:07:25;12.90;;;5.60;;
6947;SDS011;3513;47.664;9.162;2022-08-25T10:12:23;7.03;;;6.33;;
6947;SDS011;3513;47.664;9.162;2022-08-25T10:14:56;8.40;;;5.90;;
6947;SDS011;3513;47.664;9.162;2022-08-25T10:17:27;10.93;;;7.10;;
6947;SDS011;3513;47.664;9.162;2022-08-25T10:22:40;5.97;;;5.43;;
6947;SDS011;3513;47.664;9.162;2022-08-25T10:25:08;7.80;;;5.70;;
6947;SDS011;3513;47.664;9.162;2022-08-25T10:30:35;6.90;;;4.93;;
6947;SDS011;3513;47.664;9.162;2022-08-25T10:35:58;12.97;;;5.97;;
6947;SDS011;3513;47.664;9.162;2022-08-25T10:44:01;7.57;;;6.57;;
6947;SDS011;3513;47.664;9.162;2022-08-25T10:49:54;10.00;;;5.83;;
6947;SDS011;3513;47.664;9.162;2022-08-25T11:06:26;13.30;;;5.80;;
6947;SDS011;3513;47.664;9.162;2022-08-25T11:09:12;8.73;;;5.70;;
6947;SDS011;3513;47.664;9.162;2022-08-25T11:11:51;12.83;;;4.57;;
6947;SDS011;3513;47.664;9.162;2022-08-25T11:14:35;8.50;;;5.90;;
6947;SDS011;3513;47.664;9.162;2022-08-25T11:17:17;4.93;;;4.53;;
6947;SDS011;3513;47.664;9.162;2022-08-25T11:20:04;5.17;;;4.30;;
6947;SDS011;3513;47.664;9.162;2022-08-25T11:25:33;7.83;;;5.60;;
6947;SDS011;3513;47.664;9.162;2022-08-25T11:31:10;13.37;;;5.73;;
6947;SDS011;3513;47.664;9.162;2022-08-25T11:33:38;5.30;;;4.80;;
6947;SDS011;3513;47.664;9.162;2022-08-25T11:36:05;6.57;;;4.67;;
6947;SDS011;3513;47.664;9.162;2022-08-25T11:41:47;5.80;;;5.17;;
6947;SDS011;3513;47.664;9.162;2022-08-25T11:48:02;6.83;;;4.80;;
6947;SDS011;3513;47.664;9.162;2022-08-25T11:49:59;6.17;;;4.80;;
6947;SDS011;3513;47.664;9.162;2022-08-25T11:57:34;5.80;;;4.30;;
6947;SDS011;3513;47.664;9.162;2022-08-25T12:00:04;5.37;;;4.70;;
6947;SDS011;3513;47.664;9.162;2022-08-25T12:02:53;9.20;;;4.23;;
6947;SDS011;3513;47.664;9.162;2022-08-25T12:13:43;12.10;;;4.23;;
6947;SDS011;3513;47.664;9.162;2022-08-25T12:19:53;5.50;;;4.50;;
6947;SDS011;3513;47.664;9.162;2022-08-25T12:27:30;6.97;;;4.60;;
6947;SDS011;3513;47.664;9.162;2022-08-25T12:30:27;9.20;;;4.03;;
6947;SDS011;3513;47.664;9.162;2022-08-25T12:33:24;6.73;;;3.80;;
6947;SDS011;3513;47.664;9.162;2022-08-25T12:36:01;3.63;;;3.33;;
6947;SDS011;3513;47.664;9.162;2022-08-25T12:38:48;6.30;;;4.00;;
6947;SDS011;3513;47.664;9.162;2022-08-25T12:41:20;5.47;;;3.67;;
6947;SDS011;3513;47.664;9.162;2022-08-25T12:43:49;5.73;;;3.47;;
6947;SDS011;3513;47.664;9.162;2022-08-25T12:52:01;8.97;;;4.30;;
6947;SDS011;3513;47.664;9.162;2022-08-25T12:54:51;4.50;;;3.90;;
6947;SDS011;3513;47.664;9.162;2022-08-25T13:00:19;4.47;;;3.70;;
6947;SDS011;3513;47.664;9.162;2022-08-25T13:15:58;3.97;;;3.60;;
6947;SDS011;3513;47.664;9.162;2022-08-25T13:18:27;4.93;;;4.43;;
6947;SDS011;3513;47.664;9.162;2022-08-25T13:21:03;5.43;;;4.30;;
6947;SDS011;3513;47.664;9.162;2022-08-25T13:23:42;5.80;;;4.20;;
6947;SDS011;3513;47.664;9.162;2022-08-25T13:26:14;10.83;;;3.73;;
6947;SDS011;3513;47.664;9.162;2022-08-25T13:28:56;9.00;;;4.20;;
6947;SDS011;3513;47.664;9.162;2022-08-25T13:31:25;7.07;;;4.17;;
6947;SDS011;3513;47.664;9.162;2022-08-25T13:33:57;7.80;;;4.17;;
6947;SDS011;3513;47.664;9.162;2022-08-25T13:36:26;5.20;;;4.70;;
6947;SDS011;3513;47.664;9.162;2022-08-25T13:39:14;3.90;;;3.40;;
6947;SDS011;3513;47.664;9.162;2022-08-25T13:41:46;9.13;;;4.33;;
6947;SDS011;3513;47.664;9.162;2022-08-25T13:44:18;6.70;;;3.30;;
6947;SDS011;3513;47.664;9.162;2022-08-25T13:46:46;4.67;;;4.27;;
6947;SDS011;3513;47.664;9.162;2022-08-25T13:49:23;4.43;;;4.03;;
6947;SDS011;3513;47.664;9.162;2022-08-25T13:51:51;10.30;;;4.20;;
6947;SDS011;3513;47.664;9.162;2022-08-25T13:54:22;3.97;;;3.57;;
6947;SDS011;3513;47.664;9.162;2022-08-25T13:57:06;4.80;;;3.70;;
6947;SDS011;3513;47.664;9.162;2022-08-25T13:59:43;8.03;;;3.43;;
6947;SDS011;3513;47.664;9.162;2022-08-25T14:05:04;3.00;;;2.80;;
6947;SDS011;3513;47.664;9.162;2022-08-25T14:07:30;6.60;;;4.17;;
6947;SDS011;3513;47.664;9.162;2022-08-25T14:13:06;7.53;;;3.47;;
6947;SDS011;3513;47.664;9.162;2022-08-25T14:15:32;4.10;;;3.47;;
6947;SDS011;3513;47.664;9.162;2022-08-25T14:20:28;4.73;;;3.57;;
6947;SDS011;3513;47.664;9.162;2022-08-25T14:23:05;4.60;;;3.50;;
6947;SDS011;3513;47.664;9.162;2022-08-25T14:25:33;5.13;;;3.10;;
6947;SDS011;3513;47.664;9.162;2022-08-25T14:28:03;3.70;;;3.37;;
6947;SDS011;3513;47.664;9.162;2022-08-25T14:30:31;3.40;;;2.60;;
6947;SDS011;3513;47.664;9.162;2022-08-25T14:32:59;3.10;;;2.63;;
6947;SDS011;3513;47.664;9.162;2022-08-25T14:35:26;4.20;;;3.00;;
6947;SDS011;3513;47.664;9.162;2022-08-25T14:37:53;9.27;;;3.07;;
6947;SDS011;3513;47.664;9.162;2022-08-25T14:40:19;3.70;;;3.20;;
6947;SDS011;3513;47.664;9.162;2022-08-25T14:42:46;2.80;;;2.60;;
6947;SDS011;3513;47.664;9.162;2022-08-25T14:45:13;3.97;;;3.10;;
6947;SDS011;3513;47.664;9.162;2022-08-25T14:47:43;5.53;;;2.60;;
6947;SDS011;3513;47.664;9.162;2022-08-25T14:50:10;5.50;;;2.63;;
6947;SDS011;3513;47.664;9.162;2022-08-25T14:52:39;8.93;;;2.60;;
6947;SDS011;3513;47.664;9.162;2022-08-25T14:55:06;3.27;;;2.40;;
6947;SDS011;3513;47.664;9.162;2022-08-25T14:57:33;9.20;;;2.60;;
6947;SDS011;3513;47.664;9.162;2022-08-25T14:59:59;3.80;;;2.47;;
6947;SDS011;3513;47.664;9.162;2022-08-25T15:02:26;5.70;;;2.93;;
6947;SDS011;3513;47.664;9.162;2022-08-25T15:04:57;3.10;;;2.90;;
6947;SDS011;3513;47.664;9.162;2022-08-25T15:07:27;2.40;;;2.20;;
6947;SDS011;3513;47.664;9.162;2022-08-25T15:10:11;2.80;;;2.40;;
6947;SDS011;3513;47.664;9.162;2022-08-25T15:12:37;2.50;;;2.30;;
6947;SDS011;3513;47.664;9.162;2022-08-25T15:15:03;4.63;;;2.80;;
6947;SDS011;3513;47.664;9.162;2022-08-25T15:17:30;4.30;;;3.30;;
6947;SDS011;3513;47.664;9.162;2022-08-25T15:19:56;3.83;;;3.53;;
6947;SDS011;3513;47.664;9.162;2022-08-25T15:22:21;3.70;;;2.30;;
6947;SDS011;3513;47.664;9.162;2022-08-25T15:24:47;5.53;;;1.80;;
6947;SDS011;3513;47.664;9.162;2022-08-25T15:27:13;9.73;;;2.20;;
6947;SDS011;3513;47.664;9.162;2022-08-25T15:29:42;3.40;;;2.67;;
6947;SDS011;3513;47.664;9.162;2022-08-25T15:32:08;3.77;;;2.93;;
6947;SDS011;3513;47.664;9.162;2022-08-25T15:34:34;5.23;;;2.60;;
6947;SDS011;3513;47.664;9.162;2022-08-25T15:37:10;2.43;;;2.20;;
6947;SDS011;3513;47.664;9.162;2022-08-25T15:39:38;3.33;;;2.47;;
6947;SDS011;3513;47.664;9.162;2022-08-25T15:42:05;2.90;;;2.60;;
6947;SDS011;3513;47.664;9.162;2022-08-25T15:44:31;4.87;;;2.40;;
6947;SDS011;3513;47.664;9.162;2022-08-25T15:46:57;4.83;;;2.53;;
6947;SDS011;3513;47.664;9.162;2022-08-25T15:49:23;5.50;;;2.07;;
6947;SDS011;3513;47.664;9.162;2022-08-25T15:51:51;2.17;;;2.07;;
6947;SDS011;3513;47.664;9.162;2022-08-25T15:54:17;4.70;;;2.70;;
6947;SDS011;3513;47.664;9.162;2022-08-25T15:56:44;5.43;;;2.67;;
6947;SDS011;3513;47.664;9.162;2022-08-25T15:59:09;2.77;;;2.57;;
6947;SDS011;3513;47.664;9.162;2022-08-25T16:01:37;6.10;;;3.23;;
6947;SDS011;3513;47.664;9.162;2022-08-25T16:04:04;5.80;;;2.60;;
6947;SDS011;3513;47.664;9.162;2022-08-25T16:06:30;3.70;;;2.60;;
6947;SDS011;3513;47.664;9.162;2022-08-25T16:08:56;3.47;;;3.17;;
6947;SDS011;3513;47.664;9.162;2022-08-25T16:11:24;3.57;;;3.27;;
6947;SDS011;3513;47.664;9.162;2022-08-25T16:13:53;11.63;;;2.77;;
6947;SDS011;3513;47.664;9.162;2022-08-25T16:16:20;6.13;;;3.43;;
6947;SDS011;3513;47.664;9.162;2022-08-25T16:18:48;7.80;;;3.10;;
6947;SDS011;3513;47.664;9.162;2022-08-25T16:21:15;11.07;;;2.37;;
6947;SDS011;3513;47.664;9.162;2022-08-25T16:23:43;4.70;;;2.83;;
6947;SDS011;3513;47.664;9.162;2022-08-25T16:26:10;3.50;;;2.90;;
6947;SDS011;3513;47.664;9.162;2022-08-25T16:28:37;5.30;;;2.60;;
6947;SDS011;3513;47.664;9.162;2022-08-25T16:31:04;2.73;;;2.53;;
6947;SDS011;3513;47.664;9.162;2022-08-25T16:33:33;2.83;;;2.63;;
6947;SDS011;3513;47.664;9.162;2022-08-25T16:38:32;7.30;;;5.60;;
6947;SDS011;3513;47.664;9.162;2022-08-25T16:40:58;7.50;;;3.80;;
6947;SDS011;3513;47.664;9.162;2022-08-25T16:43:24;3.27;;;3.00;;
6947;SDS011;3513;47.664;9.162;2022-08-25T16:45:57;5.17;;;3.80;;
6947;SDS011;3513;47.664;9.162;2022-08-25T16:48:26;3.47;;;2.77;;
6947;SDS011;3513;47.664;9.162;2022-08-25T16:50:52;3.80;;;3.17;;
6947;SDS011;3513;47.664;9.162;2022-08-25T16:53:18;6.07;;;3.20;;
6947;SDS011;3513;47.664;9.162;2022-08-25T16:56:02;4.40;;;2.60;;
6947;SDS011;3513;47.664;9.162;2022-08-25T16:58:29;5.53;;;2.67;;
6947;SDS011;3513;47.664;9.162;2022-08-25T17:01:02;12.67;;;2.70;;
6947;SDS011;3513;47.664;9.162;2022-08-25T17:03:30;3.57;;;2.93;;
6947;SDS011;3513;47.664;9.162;2022-08-25T17:05:57;3.50;;;2.87;;
6947;SDS011;3513;47.664;9.162;2022-08-25T17:08:23;3.07;;;2.80;;
6947;SDS011;3513;47.664;9.162;2022-08-25T17:13:34;5.10;;;3.00;;
6947;SDS011;3513;47.664;9.162;2022-08-25T17:16:01;4.50;;;3.30;;
6947;SDS011;3513;47.664;9.162;2022-08-25T17:18:28;6.27;;;3.30;;
6947;SDS011;3513;47.664;9.162;2022-08-25T17:21:01;4.93;;;3.17;;
6947;SDS011;3513;47.664;9.162;2022-08-25T17:23:33;3.80;;;3.30;;
6947;SDS011;3513;47.664;9.162;2022-08-25T17:25:59;4.13;;;2.90;;
6947;SDS011;3513;47.664;9.162;2022-08-25T17:28:25;3.87;;;3.57;;
6947;SDS011;3513;47.664;9.162;2022-08-25T17:30:51;7.30;;;3.00;;
6947;SDS011;3513;47.664;9.162;2022-08-25T17:33:17;5.67;;;3.27;;
6947;SDS011;3513;47.664;9.162;2022-08-25T17:35:45;3.00;;;2.80;;
6947;SDS011;3513;47.664;9.162;2022-08-25T17:38:13;6.77;;;2.80;;
6947;SDS011;3513;47.664;9.162;2022-08-25T17:40:41;4.13;;;3.30;;
6947;SDS011;3513;47.664;9.162;2022-08-25T17:43:07;4.40;;;3.20;;
6947;SDS011;3513;47.664;9.162;2022-08-25T17:45:33;2.63;;;2.43;;